createdAt,value
2019-05-05T00:02:55.312Z,1.00
2019-05-05T00:07:59.416Z,1.00
2019-05-05T00:13:15.007Z,1.00
2019-05-05T00:18:22.625Z,1.00
2019-05-05T00:23:26.799Z,1.50
2019-05-05T00:28:30.947Z,0.75
2019-05-05T00:33:35.178Z,0.00
2019-05-05T00:38:39.272Z,1.60
2019-05-05T00:43:45.131Z,1.00
2019-05-05T00:48:49.420Z,2.00
2019-05-05T00:53:55.501Z,1.00
2019-05-05T00:59:04.567Z,0.00
2019-05-05T01:04:10.401Z,0.00
2019-05-05T01:09:18.845Z,1.40
2019-05-05T01:14:24.884Z,0.80
2019-05-05T01:19:28.936Z,0.80
2019-05-05T01:24:34.222Z,0.80
2019-05-05T01:29:38.458Z,0.00
2019-05-05T01:34:45.046Z,0.20
2019-05-05T01:39:55.915Z,1.00
2019-05-05T01:45:00.012Z,1.00
2019-05-05T01:50:17.539Z,1.33
2019-05-05T01:55:11.534Z,1.00
2019-05-05T02:00:15.948Z,0.00
2019-05-05T02:05:20.118Z,0.80
2019-05-05T02:10:25.427Z,0.00
2019-05-05T02:15:29.854Z,0.00
2019-05-05T02:20:44.916Z,0.00
2019-05-05T02:25:48.786Z,0.00
2019-05-05T02:31:00.218Z,0.00
2019-05-05T02:36:05.595Z,0.00
2019-05-05T02:41:10.393Z,0.00
2019-05-05T02:46:40.309Z,0.00
2019-05-05T02:51:46.024Z,0.00
2019-05-05T02:56:54.099Z,0.00
2019-05-05T03:02:04.295Z,0.00
2019-05-05T03:07:10.835Z,0.00
2019-05-05T03:12:17.097Z,0.00
2019-05-05T03:17:23.337Z,0.20
2019-05-05T03:22:27.784Z,0.00
2019-05-05T03:27:33.993Z,0.00
2019-05-05T03:32:37.891Z,0.50
2019-05-05T03:37:44.504Z,1.00
2019-05-05T03:42:54.648Z,0.00
2019-05-05T03:47:59.561Z,0.50
2019-05-05T03:53:04.943Z,0.00
2019-05-05T03:58:09.342Z,0.00
2019-05-05T04:03:14.696Z,0.80
2019-05-05T04:08:19.240Z,1.00
2019-05-05T04:13:24.417Z,0.40
2019-05-05T04:18:30.176Z,0.00
2019-05-05T04:23:34.303Z,0.00
2019-05-05T04:28:38.337Z,1.00
2019-05-05T04:33:44.359Z,0.40
2019-05-05T04:38:48.145Z,0.80
2019-05-05T04:43:54.550Z,0.00
2019-05-05T04:49:08.895Z,0.00
2019-05-05T04:54:18.883Z,0.00
2019-05-05T04:59:23.602Z,0.00
2019-05-05T05:04:55.921Z,0.00
2019-05-05T05:09:59.957Z,0.75
2019-05-05T05:15:04.498Z,0.00
2019-05-05T05:20:08.764Z,0.00
2019-05-05T05:25:13.564Z,0.00
2019-05-05T05:30:18.009Z,0.00
2019-05-05T05:35:24.227Z,0.00
2019-05-05T05:40:44.446Z,0.00
2019-05-05T05:46:06.546Z,0.00
2019-05-05T05:51:14.611Z,0.00
2019-05-05T05:56:18.780Z,0.00
2019-05-05T06:01:23.961Z,0.00
2019-05-05T06:06:28.194Z,0.00
2019-05-05T06:11:34.300Z,0.00
2019-05-05T06:16:38.127Z,0.00
2019-05-05T06:21:44.059Z,0.00
2019-05-05T06:26:48.213Z,0.00
2019-05-05T06:31:53.798Z,0.00
2019-05-05T06:36:57.988Z,0.00
2019-05-05T06:42:09.558Z,0.00
2019-05-05T06:47:19.675Z,0.00
2019-05-05T06:52:24.848Z,0.00
2019-05-05T06:57:29.008Z,0.00
2019-05-05T07:02:35.748Z,0.00
2019-05-05T07:07:39.793Z,7.75
2019-05-05T07:12:44.255Z,9.25
2019-05-05T07:17:48.240Z,4.00
2019-05-05T07:23:01.479Z,3.00
2019-05-05T07:27:58.550Z,1.20
2019-05-05T07:33:04.569Z,4.00
2019-05-05T07:38:09.265Z,2.00
2019-05-05T07:43:14.618Z,1.00
2019-05-05T07:48:18.842Z,1.75
2019-05-05T07:53:24.493Z,2.25
2019-05-05T07:58:28.675Z,1.60
2019-05-05T08:03:33.860Z,1.50
2019-05-05T08:08:38.423Z,1.80
2019-05-05T08:13:44.365Z,1.00
2019-05-05T08:19:06.390Z,0.25
2019-05-05T08:24:16.502Z,1.00
2019-05-05T08:29:35.941Z,0.80
2019-05-05T08:34:54.379Z,1.00
2019-05-05T08:39:46.011Z,2.00
2019-05-05T08:44:50.110Z,1.00
2019-05-05T08:49:54.193Z,0.00
2019-05-05T08:54:58.308Z,1.60
2019-05-05T09:00:04.713Z,1.00
2019-05-05T09:05:08.469Z,0.00
2019-05-05T09:10:14.285Z,0.50
2019-05-05T09:15:18.613Z,1.00
2019-05-05T09:20:24.223Z,0.00
2019-05-05T09:25:40.742Z,0.80
2019-05-05T09:30:46.711Z,1.00
2019-05-05T09:35:51.022Z,1.00
2019-05-05T09:40:55.130Z,0.40
2019-05-05T09:45:59.172Z,0.00
2019-05-05T09:51:04.336Z,2.00
2019-05-05T09:56:08.737Z,1.00
2019-05-05T10:01:14.030Z,1.00
2019-05-05T10:06:18.278Z,0.80
2019-05-05T10:11:23.837Z,0.00
2019-05-05T10:16:28.164Z,0.40
2019-05-05T10:21:33.927Z,0.00
2019-05-05T10:26:38.089Z,1.00
2019-05-05T10:31:43.658Z,1.00
2019-05-05T10:36:47.992Z,0.60
2019-05-05T10:41:54.684Z,1.50
2019-05-05T10:46:58.222Z,29.00
2019-05-05T10:52:03.695Z,20.80
2019-05-05T10:57:07.973Z,26.25
2019-05-05T11:02:14.090Z,28.80
2019-05-05T11:07:18.514Z,32.60
2019-05-05T11:12:24.587Z,30.00
2019-05-05T11:17:28.829Z,30.20
2019-05-05T11:22:34.651Z,30.25
2019-05-05T11:27:39.020Z,28.00
2019-05-05T11:33:00.684Z,25.00
2019-05-05T11:38:04.959Z,21.50
2019-05-05T11:43:09.038Z,20.00
2019-05-05T11:48:14.773Z,14.75
2019-05-05T11:53:19.084Z,15.75
2019-05-05T11:58:25.045Z,14.75
2019-05-05T12:03:29.220Z,14.80
2019-05-05T12:08:34.496Z,10.00
2019-05-05T12:13:38.785Z,14.00
2019-05-05T12:18:44.878Z,9.25
2019-05-05T12:23:48.590Z,10.25
2019-05-05T12:29:10.603Z,9.00
2019-05-05T12:34:14.718Z,8.00
2019-05-05T12:39:18.882Z,5.75
2019-05-05T12:44:31.111Z,7.75
2019-05-05T12:49:35.217Z,6.00
2019-05-05T12:54:39.289Z,7.00
2019-05-05T12:59:44.425Z,7.00
2019-05-05T13:04:48.630Z,6.25
2019-05-05T13:09:54.393Z,5.60
2019-05-05T13:14:58.414Z,4.50
2019-05-05T13:20:20.155Z,5.40
2019-05-05T13:25:56.171Z,4.20
2019-05-05T13:30:55.293Z,3.50
2019-05-05T13:35:59.595Z,6.00
2019-05-05T13:41:03.904Z,4.00
2019-05-05T13:46:21.041Z,4.00
2019-05-05T13:51:25.172Z,4.60
2019-05-05T13:56:29.378Z,3.80
2019-05-05T14:01:34.223Z,2.00
2019-05-05T14:07:05.292Z,4.00
2019-05-05T14:11:49.030Z,2.00
2019-05-05T14:16:53.854Z,3.20
2019-05-05T14:22:00.047Z,3.00
2019-05-05T14:27:05.904Z,1.80
2019-05-05T14:32:13.495Z,1.00
2019-05-05T14:37:34.094Z,2.75
2019-05-05T14:42:38.314Z,2.00
2019-05-05T14:47:44.140Z,2.20
2019-05-05T14:52:48.179Z,1.25
2019-05-05T14:57:53.462Z,1.60
2019-05-05T15:02:57.782Z,2.00
2019-05-05T15:08:13.719Z,1.25
2019-05-05T15:13:17.775Z,1.00
2019-05-05T15:18:23.984Z,1.00
2019-05-05T15:23:27.847Z,2.00
2019-05-05T15:28:33.648Z,1.00
2019-05-05T15:38:56.019Z,1.00
2019-05-05T15:44:00.060Z,1.00
2019-05-05T15:49:04.370Z,1.80
2019-05-05T15:54:08.555Z,0.00
2019-05-05T15:59:14.320Z,1.00
2019-05-05T16:04:18.479Z,1.20
2019-05-05T16:09:22.512Z,1.00
2019-05-05T16:14:26.609Z,1.00
2019-05-05T16:19:39.253Z,2.00
2019-05-05T16:24:44.728Z,0.40
2019-05-05T16:29:48.889Z,0.75
2019-05-05T16:34:54.754Z,1.50
2019-05-05T16:39:58.667Z,1.40
2019-05-05T16:45:04.516Z,1.00
2019-05-05T16:50:09.620Z,0.20
2019-05-05T16:55:23.852Z,0.75
2019-05-05T17:00:28.185Z,0.00
2019-05-05T17:05:34.473Z,1.00
2019-05-05T17:10:38.288Z,1.25
2019-05-05T17:15:56.848Z,1.00
2019-05-05T17:21:04.263Z,0.25
2019-05-05T17:26:08.590Z,0.00
2019-05-05T17:31:12.848Z,1.00
2019-05-05T17:36:17.160Z,0.25
2019-05-05T17:41:49.480Z,1.00
2019-05-05T17:47:01.268Z,1.00
2019-05-05T17:52:14.199Z,1.20
2019-05-05T17:57:18.038Z,1.00
2019-05-05T18:02:23.684Z,1.00
2019-05-05T18:07:47.810Z,1.50
2019-05-05T18:13:09.358Z,1.00
2019-05-05T18:18:14.019Z,0.75
2019-05-05T18:23:18.314Z,0.50
2019-05-05T18:28:24.542Z,0.80
2019-05-05T18:33:28.543Z,0.00
2019-05-05T18:38:33.658Z,1.75
2019-05-05T18:43:50.084Z,1.00
2019-05-05T18:48:54.525Z,0.60
2019-05-05T18:53:58.820Z,1.00
2019-05-05T18:59:06.209Z,0.60
2019-05-05T19:04:26.918Z,0.00
2019-05-05T19:09:30.985Z,0.00
2019-05-05T19:14:35.102Z,0.00
2019-05-05T19:19:40.797Z,0.00
2019-05-05T19:24:44.889Z,2.00
2019-05-05T19:29:48.947Z,1.00
2019-05-05T19:34:54.342Z,1.00
2019-05-05T19:39:58.490Z,1.00
2019-05-05T19:45:04.314Z,1.00
2019-05-05T19:50:26.304Z,0.60
2019-05-05T19:55:30.435Z,0.80
2019-05-05T20:00:35.818Z,1.50
2019-05-05T20:05:43.087Z,1.00
2019-05-05T20:10:46.114Z,0.80
2019-05-05T20:15:56.852Z,0.80
2019-05-05T20:21:04.780Z,0.00
2019-05-05T20:26:07.378Z,0.50
2019-05-05T20:31:11.405Z,1.00
2019-05-05T20:36:18.563Z,1.75
2019-05-05T20:41:24.860Z,1.00
2019-05-05T20:46:30.360Z,1.00
2019-05-05T20:51:34.401Z,1.00
2019-05-05T20:56:38.667Z,0.75
2019-05-05T21:01:43.876Z,1.00
2019-05-05T21:06:48.387Z,1.00
2019-05-05T21:11:54.573Z,1.00
2019-05-05T21:16:58.443Z,1.60
2019-05-05T21:22:21.495Z,1.00
2019-05-05T21:27:25.667Z,1.50
2019-05-05T21:32:29.747Z,1.00
2019-05-05T21:37:34.094Z,1.00
2019-05-05T21:42:38.184Z,0.00
2019-05-05T21:47:44.224Z,0.00
2019-05-05T21:52:57.038Z,1.00
2019-05-05T21:58:22.238Z,1.00
2019-05-05T22:03:31.665Z,0.25
2019-05-05T22:08:36.463Z,0.50
2019-05-05T22:13:40.588Z,1.00
2019-05-05T22:18:46.737Z,0.00
2019-05-05T22:24:08.363Z,0.00
2019-05-05T22:29:14.092Z,0.00
2019-05-05T22:34:18.592Z,0.60
2019-05-05T22:39:24.329Z,0.00
2019-05-05T22:44:28.966Z,0.00
2019-05-05T22:49:33.145Z,0.00
2019-05-05T22:54:38.827Z,0.75
2019-05-05T22:59:43.299Z,0.00
2019-05-05T23:05:05.351Z,0.20
2019-05-05T23:10:10.098Z,0.60
2019-05-05T23:15:16.149Z,0.00
2019-05-05T23:21:07.657Z,0.00
2019-05-05T23:26:14.021Z,1.00
2019-05-05T23:31:18.408Z,1.00
2019-05-05T23:36:24.185Z,0.00
2019-05-05T23:41:28.817Z,0.00
2019-05-05T23:46:34.860Z,0.00
2019-05-05T23:51:39.511Z,0.80
2019-05-05T23:56:44.206Z,0.00
